createdAt,value
2018-07-17T00:00:37.609Z,20.24
2018-07-17T00:03:08.284Z,20.20
2018-07-17T00:05:38.920Z,20.16
2018-07-17T00:08:09.597Z,20.11
2018-07-17T00:10:40.271Z,20.07
2018-07-17T00:13:10.935Z,20.04
2018-07-17T00:15:41.570Z,19.99
2018-07-17T00:18:12.255Z,19.93
2018-07-17T00:20:42.905Z,19.89
2018-07-17T00:23:13.590Z,19.85
2018-07-17T00:25:44.245Z,19.84
2018-07-17T00:28:14.859Z,19.81
2018-07-17T00:30:45.543Z,19.76
2018-07-17T00:33:16.217Z,19.70
2018-07-17T00:35:46.923Z,19.61
2018-07-17T00:38:17.613Z,19.50
2018-07-17T00:40:48.300Z,19.43
2018-07-17T00:43:19.005Z,19.37
2018-07-17T00:45:49.760Z,19.35
2018-07-17T00:48:20.423Z,19.33
2018-07-17T00:50:51.074Z,19.32
2018-07-17T00:53:21.766Z,19.34
2018-07-17T00:55:52.443Z,19.29
2018-07-17T00:58:23.120Z,19.28
2018-07-17T01:00:52.772Z,19.22
2018-07-17T01:03:28.662Z,19.20
2018-07-17T01:06:04.620Z,19.19
2018-07-17T01:08:40.594Z,19.19
2018-07-17T01:11:16.467Z,19.16
2018-07-17T01:13:55.410Z,19.14
2018-07-17T01:16:26.114Z,19.11
2018-07-17T01:18:56.840Z,19.12
2018-07-17T01:21:27.553Z,19.04
2018-07-17T01:23:58.794Z,19.02
2018-07-17T01:26:29.493Z,19.03
2018-07-17T01:29:00.128Z,18.96
2018-07-17T01:31:30.906Z,18.99
2018-07-17T01:34:01.552Z,18.99
2018-07-17T01:36:32.534Z,18.97
2018-07-17T01:39:03.233Z,18.94
2018-07-17T01:41:34.061Z,18.91
2018-07-17T01:44:04.744Z,18.88
2018-07-17T01:47:06.273Z,18.85
2018-07-17T01:49:36.915Z,18.81
2018-07-17T01:52:07.668Z,18.80
2018-07-17T01:54:38.306Z,18.77
2018-07-17T01:57:08.853Z,18.74
2018-07-17T01:59:39.731Z,18.72
2018-07-17T02:02:10.621Z,18.70
2018-07-17T02:04:41.402Z,18.65
2018-07-17T02:07:12.234Z,18.64
2018-07-17T02:09:42.888Z,18.62
2018-07-17T02:12:13.538Z,18.58
2018-07-17T02:14:44.183Z,18.55
2018-07-17T02:17:14.868Z,18.50
2018-07-17T02:19:45.552Z,18.48
2018-07-17T02:22:16.278Z,18.50
2018-07-17T02:24:47.043Z,18.54
2018-07-17T02:27:18.468Z,18.58
2018-07-17T02:29:49.182Z,18.57
2018-07-17T02:32:19.821Z,18.54
2018-07-17T02:34:50.595Z,18.49
2018-07-17T02:37:21.218Z,18.47
2018-07-17T02:39:51.859Z,18.41
2018-07-17T02:42:22.530Z,18.36
2018-07-17T02:44:53.167Z,18.30
2018-07-17T02:47:23.817Z,18.26
2018-07-17T02:49:54.474Z,18.21
2018-07-17T02:52:25.155Z,18.18
2018-07-17T02:54:55.764Z,18.18
2018-07-17T02:57:26.400Z,18.17
2018-07-17T02:59:57.029Z,18.15
2018-07-17T03:02:27.646Z,18.12
2018-07-17T03:04:58.307Z,18.10
2018-07-17T03:07:28.966Z,18.07
2018-07-17T03:09:59.666Z,18.05
2018-07-17T03:12:30.315Z,18.02
2018-07-17T03:15:00.941Z,18.01
2018-07-17T03:17:31.592Z,17.99
2018-07-17T03:20:02.296Z,18.04
2018-07-17T03:22:32.952Z,18.03
2018-07-17T03:25:03.654Z,18.03
2018-07-17T03:27:34.305Z,18.02
2018-07-17T03:30:05.657Z,18.03
2018-07-17T03:32:36.357Z,18.03
2018-07-17T03:35:07.186Z,18.04
2018-07-17T03:37:37.901Z,18.08
2018-07-17T03:40:08.634Z,18.11
2018-07-17T03:42:39.385Z,18.12
2018-07-17T03:45:10.077Z,18.15
2018-07-17T03:47:40.756Z,18.17
2018-07-17T03:50:11.409Z,18.18
2018-07-17T03:52:42.148Z,18.17
2018-07-17T03:55:12.767Z,18.14
2018-07-17T03:57:43.464Z,18.11
2018-07-17T04:00:14.115Z,18.11
2018-07-17T04:02:44.827Z,18.10
2018-07-17T04:05:15.477Z,18.09
2018-07-17T04:07:46.257Z,18.08
2018-07-17T04:10:16.923Z,18.07
2018-07-17T04:12:47.632Z,18.10
2018-07-17T04:15:18.393Z,18.17
2018-07-17T04:17:49.083Z,18.22
2018-07-17T04:20:19.735Z,18.30
2018-07-17T04:22:51.175Z,18.32
2018-07-17T04:25:21.944Z,18.29
2018-07-17T04:27:52.561Z,18.26
2018-07-17T04:30:23.263Z,18.26
2018-07-17T04:32:53.935Z,18.31
2018-07-17T04:35:24.742Z,18.52
2018-07-17T04:37:55.424Z,18.62
2018-07-17T04:40:26.135Z,18.68
2018-07-17T04:42:56.790Z,18.70
2018-07-17T04:45:27.444Z,18.75
2018-07-17T04:47:58.138Z,18.72
2018-07-17T04:50:28.832Z,18.79
2018-07-17T04:52:59.489Z,18.81
2018-07-17T04:55:30.179Z,18.95
2018-07-17T04:58:00.804Z,19.19
2018-07-17T05:00:31.553Z,19.44
2018-07-17T05:03:02.191Z,19.64
2018-07-17T05:05:32.899Z,19.80
2018-07-17T05:08:03.554Z,19.90
2018-07-17T05:10:34.231Z,20.10
2018-07-17T05:13:05.084Z,20.29
2018-07-17T05:15:35.722Z,20.45
2018-07-17T05:18:06.458Z,20.56
2018-07-17T05:20:37.166Z,20.70
2018-07-17T05:23:07.828Z,20.84
2018-07-17T05:25:38.535Z,20.93
2018-07-17T05:28:09.315Z,21.00
2018-07-17T05:30:40.285Z,21.09
2018-07-17T05:33:11.116Z,21.10
2018-07-17T05:35:41.880Z,21.09
2018-07-17T05:38:12.603Z,21.05
2018-07-17T05:40:43.403Z,21.02
2018-07-17T05:43:14.168Z,21.03
2018-07-17T05:45:45.008Z,21.02
2018-07-17T05:48:15.777Z,21.02
2018-07-17T05:50:46.565Z,21.02
2018-07-17T05:53:17.300Z,21.08
2018-07-17T05:55:48.236Z,21.14
2018-07-17T05:58:19.023Z,21.24
2018-07-17T06:00:49.848Z,21.27
2018-07-17T06:03:20.731Z,21.22
2018-07-17T06:05:51.604Z,21.23
2018-07-17T06:08:22.283Z,21.21
2018-07-17T06:10:53.040Z,21.22
2018-07-17T06:13:23.718Z,21.26
2018-07-17T06:15:54.510Z,21.27
2018-07-17T06:18:25.139Z,21.39
2018-07-17T06:20:55.835Z,21.48
2018-07-17T06:23:26.556Z,21.61
2018-07-17T06:25:57.285Z,21.79
2018-07-17T06:28:28.049Z,21.81
2018-07-17T06:30:58.759Z,21.95
2018-07-17T06:33:29.434Z,22.11
2018-07-17T06:36:00.080Z,22.14
2018-07-17T06:38:30.790Z,22.16
2018-07-17T06:41:01.550Z,22.25
2018-07-17T06:43:32.256Z,22.37
2018-07-17T06:46:02.963Z,22.47
2018-07-17T06:48:33.732Z,22.66
2018-07-17T06:51:04.490Z,22.76
2018-07-17T06:53:35.405Z,22.80
2018-07-17T06:56:06.235Z,22.89
2018-07-17T06:58:36.895Z,23.00
2018-07-17T07:01:07.594Z,23.15
2018-07-17T07:03:38.222Z,23.28
2018-07-17T07:06:08.951Z,23.43
2018-07-17T07:08:39.605Z,23.57
2018-07-17T07:11:10.407Z,23.66
2018-07-17T07:13:41.059Z,23.84
2018-07-17T07:16:11.713Z,24.03
2018-07-17T07:18:42.397Z,24.10
2018-07-17T07:21:13.140Z,24.21
2018-07-17T07:23:43.807Z,24.29
2018-07-17T07:26:14.633Z,24.56
2018-07-17T07:28:45.394Z,24.74
2018-07-17T07:31:16.124Z,24.84
2018-07-17T07:33:46.993Z,25.01
2018-07-17T07:36:17.737Z,25.16
2018-07-17T07:38:48.571Z,25.41
2018-07-17T07:41:19.286Z,25.23
2018-07-17T07:43:49.970Z,25.36
2018-07-17T07:46:21.657Z,25.50
2018-07-17T07:48:52.335Z,25.70
2018-07-17T07:51:23.016Z,25.99
2018-07-17T07:53:53.733Z,26.12
2018-07-17T07:56:24.532Z,26.52
2018-07-17T07:58:55.221Z,26.91
2018-07-17T08:01:25.879Z,27.14
2018-07-17T08:03:56.671Z,27.66
2018-07-17T08:06:27.321Z,27.96
2018-07-17T08:08:58.059Z,28.21
2018-07-17T08:11:28.894Z,28.53
2018-07-17T08:13:59.630Z,28.81
2018-07-17T08:16:30.838Z,29.21
2018-07-17T08:19:01.565Z,29.45
2018-07-17T08:21:32.372Z,29.56
2018-07-17T08:24:03.200Z,29.58
2018-07-17T08:26:33.985Z,29.31
2018-07-17T08:29:04.687Z,29.20
2018-07-17T08:31:35.536Z,28.85
2018-07-17T08:34:06.280Z,28.81
2018-07-17T08:36:36.987Z,28.64
2018-07-17T08:39:09.527Z,28.60
2018-07-17T08:41:40.198Z,28.34
2018-07-17T08:44:10.923Z,28.24
2018-07-17T08:46:41.610Z,28.10
2018-07-17T08:49:12.522Z,28.15
2018-07-17T08:51:43.084Z,28.06
2018-07-17T08:54:13.795Z,27.68
2018-07-17T08:56:44.427Z,27.75
2018-07-17T08:59:15.063Z,27.75
2018-07-17T09:01:45.739Z,27.81
2018-07-17T09:04:16.718Z,27.85
2018-07-17T09:06:47.482Z,28.16
2018-07-17T09:09:18.225Z,28.37
2018-07-17T09:11:49.083Z,28.44
2018-07-17T09:14:19.768Z,28.38
2018-07-17T09:16:50.580Z,29.00
2018-07-17T09:19:21.252Z,29.06
2018-07-17T09:21:52.080Z,29.07
2018-07-17T09:24:22.756Z,29.28
2018-07-17T09:26:53.663Z,29.14
2018-07-17T09:29:24.004Z,29.21
2018-07-17T09:31:54.548Z,29.69
2018-07-17T09:34:25.324Z,30.23
2018-07-17T09:36:56.090Z,30.41
2018-07-17T09:39:26.898Z,30.30
2018-07-17T09:41:57.605Z,30.20
2018-07-17T09:44:28.330Z,30.20
2018-07-17T09:46:59.076Z,30.32
2018-07-17T09:49:29.776Z,30.28
2018-07-17T09:52:00.079Z,30.16
2018-07-17T09:54:30.641Z,29.82
2018-07-17T09:57:01.319Z,30.11
2018-07-17T09:59:32.015Z,30.70
2018-07-17T10:02:07.908Z,30.38
2018-07-17T10:04:38.641Z,30.36
2018-07-17T10:07:09.314Z,29.52
2018-07-17T10:09:40.042Z,28.62
2018-07-17T10:12:10.677Z,28.48
2018-07-17T10:14:41.545Z,28.46
2018-07-17T10:17:12.337Z,28.63
2018-07-17T10:19:43.033Z,28.87
2018-07-17T10:22:13.727Z,29.45
2018-07-17T10:24:44.431Z,29.94
2018-07-17T10:27:15.205Z,30.04
2018-07-17T10:29:45.932Z,30.21
2018-07-17T10:32:16.585Z,30.45
2018-07-17T10:34:47.332Z,30.46
2018-07-17T10:37:18.033Z,30.58
2018-07-17T10:39:48.881Z,30.95
2018-07-17T10:42:19.752Z,30.25
2018-07-17T10:44:50.416Z,29.99
2018-07-17T10:47:21.068Z,30.03
2018-07-17T10:49:51.737Z,30.11
2018-07-17T10:52:22.462Z,30.61
2018-07-17T10:54:53.445Z,31.19
2018-07-17T10:57:24.134Z,31.18
2018-07-17T10:59:54.939Z,30.99
2018-07-17T11:02:25.593Z,31.13
2018-07-17T11:04:56.332Z,31.34
2018-07-17T11:07:27.021Z,31.94
2018-07-17T11:09:57.676Z,31.60
2018-07-17T11:12:28.311Z,31.55
2018-07-17T11:14:59.038Z,32.10
2018-07-17T11:17:29.713Z,32.19
2018-07-17T11:20:00.074Z,32.47
2018-07-17T11:22:30.702Z,32.28
2018-07-17T11:25:01.407Z,32.41
2018-07-17T11:27:32.125Z,32.64
2018-07-17T11:30:02.832Z,32.65
2018-07-17T11:32:33.492Z,32.73
2018-07-17T11:35:04.293Z,32.34
2018-07-17T11:37:35.340Z,32.22
2018-07-17T11:40:06.659Z,32.05
2018-07-17T11:42:37.334Z,32.26
2018-07-17T11:45:08.104Z,32.09
2018-07-17T11:47:38.792Z,32.53
2018-07-17T11:50:09.546Z,32.27
2018-07-17T11:52:40.179Z,31.94
2018-07-17T11:55:10.861Z,31.69
2018-07-17T11:57:41.539Z,31.59
2018-07-17T12:00:12.290Z,32.29
2018-07-17T12:02:42.991Z,32.76
2018-07-17T12:05:13.775Z,33.19
2018-07-17T12:07:44.463Z,33.23
2018-07-17T12:10:15.105Z,33.01
2018-07-17T12:12:45.975Z,33.19
2018-07-17T12:15:16.641Z,33.01
2018-07-17T12:17:47.459Z,33.28
2018-07-17T12:20:18.219Z,33.56
2018-07-17T12:22:49.578Z,33.85
2018-07-17T12:25:20.311Z,34.06
2018-07-17T12:27:51.048Z,34.19
2018-07-17T12:30:21.700Z,33.96
2018-07-17T12:32:52.493Z,34.23
2018-07-17T12:35:23.193Z,34.42
2018-07-17T12:37:54.024Z,33.58
2018-07-17T12:40:24.774Z,33.76
2018-07-17T12:42:55.644Z,33.61
2018-07-17T12:45:26.492Z,33.58
2018-07-17T12:47:57.283Z,33.59
2018-07-17T12:50:27.974Z,33.71
2018-07-17T12:52:59.122Z,33.82
2018-07-17T12:55:29.863Z,33.27
2018-07-17T12:58:00.539Z,32.96
2018-07-17T13:00:31.207Z,32.81
2018-07-17T13:03:01.920Z,33.10
2018-07-17T13:05:32.778Z,33.25
2018-07-17T13:08:03.493Z,33.10
2018-07-17T13:10:34.167Z,33.41
2018-07-17T13:13:04.858Z,33.44
2018-07-17T13:15:35.585Z,33.08
2018-07-17T13:18:06.328Z,33.15
2018-07-17T13:20:37.060Z,33.19
2018-07-17T13:23:07.726Z,33.76
2018-07-17T13:25:38.483Z,34.18
2018-07-17T13:28:09.198Z,34.27
2018-07-17T13:30:39.906Z,34.14
2018-07-17T13:33:10.661Z,33.72
2018-07-17T13:35:41.338Z,33.80
2018-07-17T13:38:12.011Z,33.80
2018-07-17T13:40:42.706Z,34.13
2018-07-17T13:43:13.350Z,33.97
2018-07-17T13:45:44.057Z,33.41
2018-07-17T13:48:14.716Z,32.97
2018-07-17T13:50:45.427Z,32.48
2018-07-17T13:53:16.097Z,32.44
2018-07-17T13:55:46.784Z,32.56
2018-07-17T13:58:17.429Z,32.82
2018-07-17T14:00:48.223Z,33.02
2018-07-17T14:03:19.149Z,33.51
2018-07-17T14:05:49.859Z,33.79
2018-07-17T14:08:20.507Z,33.72
2018-07-17T14:10:51.315Z,33.43
2018-07-17T14:13:22.090Z,33.29
2018-07-17T14:15:52.820Z,33.04
2018-07-17T14:18:23.539Z,33.33
2018-07-17T14:20:54.263Z,33.10
2018-07-17T14:23:25.004Z,32.81
2018-07-17T14:25:55.719Z,32.75
2018-07-17T14:28:26.446Z,32.40
2018-07-17T14:30:57.139Z,32.36
2018-07-17T14:36:28.932Z,32.54
2018-07-17T14:38:59.672Z,32.42
2018-07-17T14:41:30.452Z,32.22
2018-07-17T14:44:01.104Z,32.14
2018-07-17T14:46:31.780Z,31.73
2018-07-17T14:49:02.504Z,31.96
2018-07-17T14:51:33.219Z,32.32
2018-07-17T14:54:04.190Z,32.62
2018-07-17T14:56:34.912Z,32.71
2018-07-17T14:59:05.757Z,32.69
2018-07-17T15:01:36.416Z,32.94
2018-07-17T15:04:07.160Z,32.79
2018-07-17T15:06:37.831Z,32.74
2018-07-17T15:09:09.751Z,32.76
2018-07-17T15:11:40.441Z,32.87
2018-07-17T15:14:11.159Z,33.11
2018-07-17T15:16:41.816Z,33.23
2018-07-17T15:19:12.486Z,33.11
2018-07-17T15:21:43.163Z,32.80
2018-07-17T15:24:13.853Z,32.52
2018-07-17T15:26:44.511Z,32.56
2018-07-17T15:29:15.217Z,32.69
2018-07-17T15:31:45.966Z,32.30
2018-07-17T15:34:16.604Z,32.03
2018-07-17T15:36:47.394Z,31.76
2018-07-17T15:39:18.069Z,31.53
2018-07-17T15:41:48.848Z,31.40
2018-07-17T15:44:19.512Z,31.75
2018-07-17T15:46:50.144Z,32.11
2018-07-17T15:49:20.792Z,32.12
2018-07-17T15:51:51.465Z,32.14
2018-07-17T15:54:21.775Z,31.72
2018-07-17T15:56:52.308Z,31.47
2018-07-17T15:59:23.097Z,31.42
2018-07-17T16:01:53.809Z,31.54
2018-07-17T16:04:24.513Z,31.58
2018-07-17T16:06:55.231Z,31.49
2018-07-17T16:09:25.906Z,31.25
2018-07-17T16:12:27.414Z,31.10
2018-07-17T16:14:58.375Z,30.85
2018-07-17T16:17:29.062Z,30.78
2018-07-17T16:23:10.716Z,30.67
2018-07-17T16:25:49.696Z,30.67
2018-07-17T16:28:21.111Z,30.66
2018-07-17T16:30:52.327Z,30.41
2018-07-17T16:33:23.103Z,30.35
2018-07-17T16:35:54.318Z,30.09
2018-07-17T16:38:26.078Z,29.78
2018-07-17T16:40:56.998Z,29.64
2018-07-17T16:43:28.006Z,29.37
2018-07-17T16:45:59.549Z,29.34
2018-07-17T16:48:31.486Z,29.14
2018-07-17T16:51:02.346Z,29.07
2018-07-17T16:53:33.102Z,28.95
2018-07-17T16:56:03.799Z,28.88
2018-07-17T16:58:34.401Z,28.75
2018-07-17T17:01:05.093Z,28.74
2018-07-17T17:03:35.766Z,28.78
2018-07-17T17:06:06.473Z,28.76
2018-07-17T17:08:37.142Z,28.64
2018-07-17T17:11:07.905Z,28.62
2018-07-17T17:13:38.531Z,28.48
2018-07-17T17:16:09.418Z,28.49
2018-07-17T17:18:40.064Z,28.46
2018-07-17T17:21:10.882Z,28.55
2018-07-17T17:23:41.617Z,28.52
2018-07-17T17:26:12.403Z,28.63
2018-07-17T17:28:42.994Z,28.68
2018-07-17T17:31:13.698Z,28.65
2018-07-17T17:33:44.340Z,28.54
2018-07-17T17:36:15.065Z,28.37
2018-07-17T17:38:46.076Z,28.37
2018-07-17T17:41:16.739Z,28.17
2018-07-17T17:43:47.403Z,28.09
2018-07-17T17:46:18.081Z,28.02
2018-07-17T17:48:48.810Z,27.89
2018-07-17T17:51:19.457Z,27.78
2018-07-17T17:53:50.103Z,27.73
2018-07-17T17:56:20.764Z,27.69
2018-07-17T17:58:51.415Z,27.68
2018-07-17T18:01:22.681Z,27.64
2018-07-17T18:03:53.334Z,27.58
2018-07-17T18:06:24.004Z,27.57
2018-07-17T18:08:54.682Z,27.40
2018-07-17T18:11:25.311Z,27.32
2018-07-17T18:13:55.946Z,27.27
2018-07-17T18:16:32.954Z,27.26
2018-07-17T18:19:03.672Z,27.23
2018-07-17T18:21:34.451Z,27.08
2018-07-17T18:24:05.167Z,27.04
2018-07-17T18:26:35.856Z,27.00
2018-07-17T18:29:06.816Z,26.91
2018-07-17T18:31:37.554Z,26.89
2018-07-17T18:34:08.490Z,26.86
2018-07-17T18:36:39.583Z,26.79
2018-07-17T18:39:10.296Z,26.74
2018-07-17T18:41:40.715Z,26.66
2018-07-17T18:44:11.103Z,26.64
2018-07-17T18:46:42.034Z,26.65
2018-07-17T18:49:12.917Z,26.53
2018-07-17T18:51:43.787Z,26.49
2018-07-17T18:54:14.677Z,26.49
2018-07-17T18:56:45.891Z,26.44
2018-07-17T18:59:47.691Z,26.38
2018-07-17T19:02:18.323Z,26.25
2018-07-17T19:04:49.035Z,26.13
2018-07-17T19:07:19.695Z,26.09
2018-07-17T19:09:50.384Z,25.95
2018-07-17T19:12:21.180Z,25.85
2018-07-17T19:14:51.774Z,25.75
2018-07-17T19:17:22.487Z,25.51
2018-07-17T19:19:53.121Z,25.38
2018-07-17T19:22:23.858Z,25.21
2018-07-17T19:24:54.515Z,25.12
2018-07-17T19:27:25.364Z,25.00
2018-07-17T19:29:56.149Z,24.93
2018-07-17T19:32:26.822Z,24.77
2018-07-17T19:34:57.484Z,24.67
2018-07-17T19:40:29.776Z,24.43
2018-07-17T19:43:00.499Z,24.31
2018-07-17T19:45:31.527Z,24.14
2018-07-17T19:48:02.225Z,24.04
2018-07-17T19:50:32.972Z,24.03
2018-07-17T19:53:03.699Z,23.85
2018-07-17T19:55:34.465Z,23.81
2018-07-17T19:58:05.236Z,23.67
2018-07-17T20:00:36.278Z,23.62
2018-07-17T20:03:07.053Z,23.54
2018-07-17T20:05:37.750Z,23.44
2018-07-17T20:08:08.933Z,23.40
2018-07-17T20:10:39.655Z,23.27
2018-07-17T20:13:10.404Z,23.21
2018-07-17T20:15:41.859Z,23.10
2018-07-17T20:18:12.630Z,23.11
2018-07-17T20:20:43.398Z,23.01
2018-07-17T20:23:14.070Z,22.93
2018-07-17T20:25:45.131Z,22.96
2018-07-17T20:28:15.836Z,22.90
2018-07-17T20:30:46.588Z,22.82
2018-07-17T20:33:17.886Z,22.78
2018-07-17T20:35:48.694Z,22.73
2018-07-17T20:38:19.489Z,22.72
2018-07-17T20:40:50.212Z,22.66
2018-07-17T20:43:21.065Z,22.65
2018-07-17T20:45:51.755Z,22.64
2018-07-17T20:48:22.383Z,22.57
2018-07-17T20:50:53.119Z,22.55
2018-07-17T20:53:23.905Z,22.55
2018-07-17T20:55:54.671Z,22.52
2018-07-17T20:58:25.407Z,22.50
2018-07-17T21:00:56.071Z,22.47
2018-07-17T21:03:26.728Z,22.40
2018-07-17T21:05:57.421Z,22.39
2018-07-17T21:08:27.823Z,22.37
2018-07-17T21:10:58.436Z,22.32
2018-07-17T21:13:29.121Z,22.26
2018-07-17T21:15:59.836Z,22.22
2018-07-17T21:18:30.482Z,22.19
2018-07-17T21:21:01.213Z,22.17
2018-07-17T21:23:31.961Z,22.09
2018-07-17T21:26:02.334Z,21.97
2018-07-17T21:28:32.865Z,21.91
2018-07-17T21:31:03.688Z,21.85
2018-07-17T21:33:34.712Z,21.80
2018-07-17T21:36:05.689Z,21.79
2018-07-17T21:38:36.477Z,21.78
2018-07-17T21:41:07.251Z,21.77
2018-07-17T21:43:37.890Z,21.73
2018-07-17T21:46:08.659Z,21.62
2018-07-17T21:48:48.117Z,21.57
2018-07-17T21:51:18.795Z,21.44
2018-07-17T21:53:50.730Z,21.37
2018-07-17T21:56:21.498Z,21.32
2018-07-17T21:58:52.268Z,21.22
2018-07-17T22:01:23.102Z,21.20
2018-07-17T22:03:53.751Z,21.18
2018-07-17T22:06:24.799Z,21.13
2018-07-17T22:08:55.534Z,20.99
2018-07-17T22:11:26.364Z,20.94
2018-07-17T22:13:57.079Z,20.85
2018-07-17T22:16:27.849Z,20.80
2018-07-17T22:18:58.592Z,20.69
2018-07-17T22:21:29.355Z,20.64
2018-07-17T22:24:00.136Z,20.59
2018-07-17T22:26:30.857Z,20.56
2018-07-17T22:29:01.606Z,20.50
2018-07-17T22:31:32.365Z,20.52
2018-07-17T22:34:03.121Z,20.41
2018-07-17T22:36:33.915Z,20.37
2018-07-17T22:39:06.278Z,20.28
2018-07-17T22:41:37.148Z,20.25
2018-07-17T22:44:08.231Z,20.18
2018-07-17T22:46:39.000Z,20.09
2018-07-17T22:49:09.789Z,20.01
2018-07-17T22:51:40.518Z,20.00
2018-07-17T22:54:11.276Z,19.95
2018-07-17T22:56:42.002Z,19.90
2018-07-17T22:59:12.789Z,19.88
2018-07-17T23:01:43.611Z,19.87
2018-07-17T23:04:14.332Z,19.83
2018-07-17T23:06:45.237Z,19.81
2018-07-17T23:09:15.973Z,19.75
2018-07-17T23:11:46.788Z,19.77
2018-07-17T23:14:17.527Z,19.71
2018-07-17T23:16:48.409Z,19.67
2018-07-17T23:19:19.284Z,19.61
2018-07-17T23:21:50.103Z,19.59
2018-07-17T23:24:20.803Z,19.58
2018-07-17T23:26:52.510Z,19.58
2018-07-17T23:29:23.274Z,19.56
2018-07-17T23:31:54.027Z,19.52
2018-07-17T23:34:24.772Z,19.43
2018-07-17T23:36:55.511Z,19.37
2018-07-17T23:39:26.329Z,19.31
2018-07-17T23:41:57.056Z,19.28
2018-07-17T23:44:27.752Z,19.19
2018-07-17T23:46:58.481Z,19.18
2018-07-17T23:49:34.403Z,19.10
2018-07-17T23:52:04.901Z,19.04
2018-07-17T23:54:35.558Z,19.03
2018-07-17T23:57:06.481Z,18.98
2018-07-17T23:59:37.224Z,18.95
